Time;durP1;ratioP1;P1;durP2;ratioP2;P2;SDS_P1;SDS_P2;PMS_P1;PMS_P2;Temp;Humidity;BMP_temperature;BMP_pressure;BME280_temperature;BME280_humidity;BME280_pressure;Samples;Min_cycle;Max_cycle;Signal;HPM_P1;HPM_P2
2023/01/11 00:00:11;;;;;;;1.95;0.40;;;6.70;99.90;;;;;;5060369;28;20055;-63
2023/01/11 00:02:37;;;;;;;1.00;0.40;;;6.70;99.90;;;;;;5061221;28;20055;-64
2023/01/11 00:05:03;;;;;;;1.27;0.45;;;6.70;99.90;;;;;;5057260;28;20784;-64
2023/01/11 00:07:29;;;;;;;1.90;0.47;;;6.70;99.90;;;;;;5063801;28;20047;-64
2023/01/11 00:09:55;;;;;;;1.17;0.40;;;6.70;99.90;;;;;;5059003;28;20481;-63
2023/01/11 00:12:20;;;;;;;0.70;0.50;;;6.70;99.90;;;;;;5049871;28;20116;-63
2023/01/11 00:14:46;;;;;;;0.95;0.40;;;6.70;99.90;;;;;;5041127;28;20100;-64
2023/01/11 00:17:11;;;;;;;0.50;0.30;;;6.70;99.90;;;;;;5064988;28;20024;-64
2023/01/11 00:19:37;;;;;;;1.85;0.45;;;6.70;99.90;;;;;;5064968;28;20021;-64
2023/01/11 00:22:03;;;;;;;1.67;0.50;;;6.80;99.90;;;;;;5063833;28;20034;-65
2023/01/11 00:24:28;;;;;;;0.30;0.30;;;6.80;99.90;;;;;;5057474;28;20020;-64
2023/01/11 00:26:54;;;;;;;0.80;0.40;;;6.80;99.90;;;;;;5036986;28;20056;-63
2023/01/11 00:29:19;;;;;;;1.05;0.82;;;6.80;99.90;;;;;;5057290;28;20028;-63
2023/01/11 00:31:45;;;;;;;0.60;0.40;;;6.90;99.90;;;;;;5052413;28;20021;-63
2023/01/11 00:34:10;;;;;;;3.00;0.68;;;6.90;99.90;;;;;;5052761;28;20025;-64
2023/01/11 00:36:36;;;;;;;1.65;0.68;;;6.90;99.90;;;;;;5058649;28;20489;-64
2023/01/11 00:39:02;;;;;;;1.52;0.45;;;6.90;99.90;;;;;;5060041;28;20078;-63
2023/01/11 00:49:40;;;;;;;1.05;0.50;;;7.00;99.90;;;;;;5066838;28;20047;-64
2023/01/11 00:52:08;;;;;;;0.47;0.30;;;7.00;99.90;;;;;;5064128;28;20029;-63
2023/01/11 00:54:37;;;;;;;0.55;0.30;;;6.90;99.90;;;;;;5068702;28;20025;-64
2023/01/11 00:57:05;;;;;;;0.45;0.30;;;7.00;99.90;;;;;;5060303;28;20120;-64
2023/01/11 00:59:30;;;;;;;1.55;0.40;;;7.00;99.90;;;;;;5048990;28;20593;-63
2023/01/11 01:01:56;;;;;;;1.15;0.40;;;7.00;99.90;;;;;;5067990;28;20115;-64
2023/01/11 01:04:21;;;;;;;1.38;0.30;;;7.00;99.90;;;;;;5057213;28;20032;-64
2023/01/11 01:06:47;;;;;;;0.47;0.32;;;7.10;99.90;;;;;;5065302;28;20033;-63
2023/01/11 01:09:13;;;;;;;0.45;0.32;;;7.10;99.90;;;;;;5062461;28;20082;-64
2023/01/11 01:11:38;;;;;;;1.95;0.50;;;7.10;99.90;;;;;;5048034;28;20421;-64
2023/01/11 01:16:48;;;;;;;0.32;0.25;;;7.20;99.90;;;;;;5065760;28;20073;-64
2023/01/11 01:19:14;;;;;;;0.30;0.30;;;7.30;99.90;;;;;;5068421;28;20108;-63
2023/01/11 01:21:40;;;;;;;0.30;0.30;;;7.30;99.90;;;;;;5070363;28;20505;-63
2023/01/11 01:24:06;;;;;;;0.28;0.20;;;7.40;99.90;;;;;;5047963;28;20037;-64
2023/01/11 01:26:32;;;;;;;1.95;0.20;;;7.40;99.90;;;;;;5066723;28;20134;-63
2023/01/11 01:28:57;;;;;;;0.30;0.30;;;7.40;99.90;;;;;;5062901;28;20036;-64
2023/01/11 01:31:23;;;;;;;0.57;0.15;;;7.40;99.90;;;;;;5062429;28;20037;-64
2023/01/11 01:33:48;;;;;;;0.32;0.30;;;7.50;99.90;;;;;;5066317;28;20024;-63
2023/01/11 01:36:14;;;;;;;0.90;0.40;;;7.50;99.90;;;;;;5069728;28;20169;-64
2023/01/11 01:38:39;;;;;;;1.33;0.57;;;7.50;99.90;;;;;;5066235;28;20040;-64
2023/01/11 01:41:05;;;;;;;5.05;0.30;;;7.60;99.90;;;;;;5065294;28;20032;-64
2023/01/11 01:43:50;;;;;;;0.77;0.50;;;7.60;99.90;;;;;;5066235;28;20037;-64
2023/01/11 01:46:18;;;;;;;2.30;1.35;;;7.60;99.90;;;;;;5062081;28;20085;-64
2023/01/11 01:48:51;;;;;;;0.85;0.40;;;7.60;99.90;;;;;;5056325;28;20040;-64
2023/01/11 01:51:31;;;;;;;0.65;0.43;;;7.60;99.90;;;;;;5055219;28;20351;-64
2023/01/11 01:54:01;;;;;;;0.57;0.50;;;7.70;99.90;;;;;;5072467;28;20465;-64
2023/01/11 01:56:31;;;;;;;0.20;0.20;;;7.70;99.90;;;;;;5060613;28;20375;-63
2023/01/11 01:59:03;;;;;;;0.20;0.20;;;7.70;99.90;;;;;;5044427;28;20513;-63
2023/01/11 02:01:48;;;;;;;0.40;0.20;;;7.80;99.90;;;;;;5068183;28;20518;-63
2023/01/11 02:04:33;;;;;;;0.40;0.40;;;7.80;99.90;;;;;;5062068;28;20048;-63
2023/01/11 02:07:06;;;;;;;0.10;0.10;;;7.80;99.90;;;;;;5066219;28;20032;-63
2023/01/11 02:09:43;;;;;;;0.77;0.30;;;7.80;99.90;;;;;;5058376;28;20033;-64
2023/01/11 02:12:08;;;;;;;0.40;0.40;;;7.70;99.90;;;;;;5056793;28;20058;-63
2023/01/11 02:14:37;;;;;;;0.28;0.28;;;7.70;99.90;;;;;;5063852;28;20641;-64
2023/01/11 02:17:02;;;;;;;0.30;0.28;;;7.70;99.90;;;;;;5064540;28;20029;-64
2023/01/11 02:19:34;;;;;;;0.30;0.30;;;7.70;99.90;;;;;;5062325;28;20028;-63
2023/01/11 02:22:15;;;;;;;3.13;0.38;;;7.70;99.90;;;;;;5064118;28;20074;-64
2023/01/11 02:24:59;;;;;;;1.90;0.30;;;7.80;99.90;;;;;;5064201;28;20516;-64
2023/01/11 02:27:32;;;;;;;0.30;0.30;;;7.80;99.90;;;;;;5063246;28;20405;-64
2023/01/11 02:30:29;;;;;;;0.40;0.40;;;7.80;99.90;;;;;;5056013;28;20086;-63
2023/01/11 02:32:54;;;;;;;0.93;0.60;;;7.70;99.90;;;;;;5063646;28;20033;-63
2023/01/11 02:35:35;;;;;;;1.08;0.45;;;7.70;99.90;;;;;;5062854;28;20032;-64
2023/01/11 02:38:14;;;;;;;2.08;0.50;;;7.70;99.90;;;;;;5045464;28;20039;-64
2023/01/11 02:40:40;;;;;;;0.85;0.40;;;7.70;99.90;;;;;;5062074;28;20055;-64
2023/01/11 02:46:13;;;;;;;0.57;0.38;;;7.70;99.90;;;;;;5063014;28;20044;-63
2023/01/11 02:49:03;;;;;;;0.45;0.40;;;7.70;99.90;;;;;;5064773;28;20017;-64
2023/01/11 02:51:36;;;;;;;0.85;0.50;;;7.70;99.90;;;;;;5058020;28;20029;-64
2023/01/11 02:54:11;;;;;;;0.65;0.40;;;7.70;99.90;;;;;;5062578;28;20013;-64
2023/01/11 02:56:43;;;;;;;0.40;0.30;;;7.70;99.90;;;;;;5062461;28;20401;-64
2023/01/11 02:59:12;;;;;;;0.32;0.30;;;7.70;99.90;;;;;;5042190;28;20852;-64
2023/01/11 03:01:46;;;;;;;3.90;0.75;;;7.70;99.90;;;;;;5061413;28;20020;-64
2023/01/11 03:04:29;;;;;;;1.67;0.45;;;7.80;99.90;;;;;;5062018;28;20036;-64
2023/01/11 03:07:10;;;;;;;0.88;0.50;;;7.80;99.90;;;;;;5064794;28;20044;-64
2023/01/11 03:09:38;;;;;;;0.45;0.40;;;7.80;99.90;;;;;;5063107;28;20363;-64
2023/01/11 03:15:25;;;;;;;0.80;0.47;;;7.70;99.90;;;;;;5057583;28;20042;-64
2023/01/11 03:18:10;;;;;;;1.30;0.50;;;7.80;99.90;;;;;;5059621;28;20048;-64
2023/01/11 03:21:05;;;;;;;1.30;0.50;;;7.80;99.90;;;;;;5020553;28;20059;-64
2023/01/11 03:23:37;;;;;;;;;;;7.80;99.90;;;;;;5037489;28;20066;-63
2023/01/11 03:26:14;;;;;;;0.47;0.30;;;7.80;99.90;;;;;;5052223;28;19927;-64
2023/01/11 03:29:08;;;;;;;0.35;0.35;;;7.80;99.90;;;;;;5047373;28;20028;-63
2023/01/11 03:32:13;;;;;;;0.32;0.32;;;7.80;99.90;;;;;;5025172;28;20039;-64
2023/01/11 03:35:03;;;;;;;0.70;0.60;;;7.90;99.90;;;;;;5044976;28;20028;-63
2023/01/11 03:37:56;;;;;;;1.27;0.30;;;7.90;99.90;;;;;;5061529;28;20142;-64
2023/01/11 03:40:29;;;;;;;0.30;0.30;;;7.90;99.90;;;;;;5051494;28;20064;-64
2023/01/11 03:43:12;;;;;;;0.52;0.52;;;7.90;99.90;;;;;;5050821;28;20028;-64
2023/01/11 03:46:00;;;;;;;0.40;0.40;;;7.90;99.90;;;;;;5051282;28;20028;-66
2023/01/11 03:48:33;;;;;;;0.35;0.28;;;7.90;99.90;;;;;;5031998;28;20068;-63
2023/01/11 03:51:01;;;;;;;3.15;0.55;;;7.90;99.90;;;;;;5034893;28;20025;-63
2023/01/11 03:53:30;;;;;;;0.38;0.38;;;7.90;99.90;;;;;;5049159;28;20029;-63
2023/01/11 03:55:58;;;;;;;0.43;0.38;;;7.90;99.90;;;;;;5051153;28;20025;-64
2023/01/11 03:58:26;;;;;;;0.30;0.30;;;7.90;99.90;;;;;;5048592;28;20036;-63
2023/01/11 04:00:54;;;;;;;0.20;0.20;;;7.90;99.90;;;;;;5033546;28;20139;-63
2023/01/11 04:03:20;;;;;;;0.43;0.40;;;8.00;99.90;;;;;;5049523;28;20039;-63
2023/01/11 04:05:51;;;;;;;0.63;0.28;;;8.10;99.90;;;;;;5051348;28;20442;-64
2023/01/11 04:08:16;;;;;;;0.52;0.20;;;8.10;99.90;;;;;;5050547;28;20063;-63
2023/01/11 04:10:42;;;;;;;1.25;0.52;;;8.20;99.90;;;;;;5052146;28;20108;-63
2023/01/11 04:13:08;;;;;;;0.30;0.30;;;8.30;99.90;;;;;;5053028;28;20039;-63
2023/01/11 04:15:34;;;;;;;0.30;0.30;;;8.30;99.90;;;;;;5067703;28;20127;-64
2023/01/11 04:18:03;;;;;;;0.20;0.20;;;8.40;99.90;;;;;;5065779;28;20078;-63
2023/01/11 04:20:35;;;;;;;0.70;0.40;;;8.50;99.90;;;;;;5065932;28;20029;-64
2023/01/11 04:23:01;;;;;;;0.43;0.43;;;8.60;99.90;;;;;;5067333;28;20039;-65
2023/01/11 04:25:27;;;;;;;0.43;0.30;;;8.60;99.90;;;;;;5070910;28;20405;-65
2023/01/11 04:27:52;;;;;;;0.20;0.20;;;8.60;99.90;;;;;;5067748;28;20031;-64
2023/01/11 04:30:18;;;;;;;0.45;0.30;;;8.60;99.90;;;;;;5070584;28;20387;-65
2023/01/11 04:32:44;;;;;;;0.28;0.28;;;8.60;99.90;;;;;;5059684;28;20033;-65
2023/01/11 04:35:10;;;;;;;0.43;0.28;;;8.60;99.90;;;;;;5051698;28;20254;-65
2023/01/11 04:37:35;;;;;;;0.13;0.13;;;8.60;99.90;;;;;;5064589;28;20116;-65
2023/01/11 04:40:01;;;;;;;0.30;0.30;;;8.60;99.90;;;;;;5063120;28;20067;-65
2023/01/11 04:42:26;;;;;;;0.57;0.30;;;8.60;99.90;;;;;;5064243;28;20098;-65
2023/01/11 04:44:52;;;;;;;0.40;0.30;;;8.60;99.90;;;;;;5060690;28;20467;-65
2023/01/11 04:47:20;;;;;;;0.20;0.20;;;8.60;99.90;;;;;;5061914;28;20024;-65
2023/01/11 04:49:46;;;;;;;0.55;0.30;;;8.60;99.90;;;;;;5062319;28;20079;-65
2023/01/11 04:52:14;;;;;;;0.30;0.30;;;8.60;99.90;;;;;;5065061;28;20036;-65
2023/01/11 04:54:39;;;;;;;0.68;0.40;;;8.60;99.90;;;;;;5062047;28;20102;-65
2023/01/11 04:57:07;;;;;;;0.98;0.32;;;8.70;99.90;;;;;;5064411;28;20055;-65
2023/01/11 04:59:32;;;;;;;0.68;0.52;;;8.70;99.90;;;;;;5043516;28;20032;-65
2023/01/11 05:01:58;;;;;;;0.55;0.38;;;8.70;99.90;;;;;;5070691;28;20032;-65
2023/01/11 05:04:23;;;;;;;0.57;0.57;;;8.70;99.90;;;;;;5069801;28;20029;-65
2023/01/11 05:06:49;;;;;;;2.83;0.40;;;8.70;99.90;;;;;;5068421;28;20108;-65
2023/01/11 05:09:17;;;;;;;0.30;0.30;;;8.70;99.90;;;;;;5068661;28;20389;-65
2023/01/11 05:11:43;;;;;;;0.40;0.32;;;8.70;99.90;;;;;;5067001;28;20044;-64
2023/01/11 05:14:10;;;;;;;1.02;0.93;;;8.70;99.90;;;;;;5068662;28;20063;-64
2023/01/11 05:16:36;;;;;;;0.20;0.20;;;8.70;99.90;;;;;;5065683;28;20457;-65
2023/01/11 05:19:03;;;;;;;0.25;0.25;;;8.70;99.90;;;;;;5065965;28;20024;-65
2023/01/11 05:21:31;;;;;;;0.22;0.22;;;8.70;99.90;;;;;;5068589;28;20028;-64
2023/01/11 05:23:59;;;;;;;0.40;0.40;;;8.70;99.90;;;;;;5067716;28;20120;-65
2023/01/11 05:26:30;;;;;;;1.92;0.30;;;8.70;99.90;;;;;;5059889;28;20036;-64
2023/01/11 05:28:59;;;;;;;0.47;0.43;;;8.70;99.90;;;;;;5067554;28;20074;-65
2023/01/11 05:31:25;;;;;;;0.68;0.40;;;8.70;99.90;;;;;;5068058;28;20028;-65
2023/01/11 05:33:51;;;;;;;2.28;0.38;;;8.70;99.90;;;;;;5064373;28;20025;-64
2023/01/11 05:36:19;;;;;;;0.73;0.60;;;8.70;99.90;;;;;;5062057;28;20453;-65
2023/01/11 05:38:46;;;;;;;0.30;0.30;;;8.70;99.90;;;;;;5069414;28;20505;-65
2023/01/11 05:41:12;;;;;;;0.30;0.30;;;8.80;99.90;;;;;;5067466;28;20033;-65
2023/01/11 05:46:23;;;;;;;0.73;0.55;;;8.80;99.90;;;;;;5063342;28;20121;-64
2023/01/11 05:48:48;;;;;;;2.92;0.60;;;8.80;99.90;;;;;;5061970;28;20047;-64
2023/01/11 05:51:14;;;;;;;4.85;0.30;;;8.80;99.90;;;;;;5064465;28;20032;-64
2023/01/11 05:53:40;;;;;;;0.30;0.30;;;8.80;99.90;;;;;;5065701;28;20013;-64
2023/01/11 05:56:06;;;;;;;0.20;0.20;;;8.90;99.90;;;;;;5056751;28;20163;-64
2023/01/11 05:58:31;;;;;;;0.55;0.40;;;8.90;99.90;;;;;;5061739;28;20048;-65
2023/01/11 06:00:57;;;;;;;1.02;0.50;;;8.90;99.90;;;;;;5051352;28;20048;-64
2023/01/11 06:03:24;;;;;;;0.30;0.30;;;8.90;99.90;;;;;;5061939;28;20060;-65
2023/01/11 06:05:50;;;;;;;0.45;0.30;;;8.90;99.90;;;;;;5030357;28;20475;-64
2023/01/11 06:08:16;;;;;;;0.47;0.43;;;8.90;99.90;;;;;;5067769;28;20050;-64
2023/01/11 06:10:42;;;;;;;0.77;0.38;;;8.90;99.90;;;;;;5068141;28;20020;-64
2023/01/11 06:13:26;;;;;;;0.63;0.40;;;8.90;99.90;;;;;;5060700;28;20051;-64
2023/01/11 06:15:52;;;;;;;;;;;8.90;99.90;;;;;;5064004;28;20086;-64
2023/01/11 06:18:18;;;;;;;0.28;0.28;;;8.90;99.90;;;;;;5060267;28;19970;-64
2023/01/11 06:20:47;;;;;;;0.22;0.20;;;9.00;99.90;;;;;;5063539;28;20091;-65
2023/01/11 06:23:12;;;;;;;0.38;0.30;;;9.00;99.90;;;;;;5059223;28;20032;-64
2023/01/11 06:25:38;;;;;;;0.82;0.57;;;9.00;99.90;;;;;;5058795;28;20039;-65
2023/01/11 06:28:04;;;;;;;0.35;0.30;;;9.10;99.90;;;;;;5065024;28;20498;-64
2023/01/11 06:30:30;;;;;;;1.85;0.38;;;9.00;99.90;;;;;;5068945;28;20044;-64
2023/01/11 06:33:04;;;;;;;0.50;0.25;;;9.00;99.90;;;;;;5059707;28;20029;-64
2023/01/11 06:35:29;;;;;;;;;;;9.00;99.90;;;;;;5061365;28;20028;-64
2023/01/11 06:37:55;;;;;;;0.75;0.20;;;9.10;99.90;;;;;;5066212;28;19919;-64
2023/01/11 06:40:20;;;;;;;0.85;0.52;;;9.10;99.90;;;;;;5062078;28;20029;-64
2023/01/11 06:42:46;;;;;;;0.85;0.43;;;9.10;99.90;;;;;;5064682;28;20103;-64
2023/01/11 06:45:11;;;;;;;0.25;0.25;;;9.10;99.90;;;;;;5063241;28;20032;-64
2023/01/11 06:47:37;;;;;;;1.27;0.40;;;9.10;99.90;;;;;;5066384;28;20051;-64
2023/01/11 06:50:03;;;;;;;1.33;0.35;;;9.10;99.90;;;;;;5064880;28;20709;-64
2023/01/11 06:52:29;;;;;;;0.22;0.22;;;9.20;99.90;;;;;;5065555;28;20086;-63
2023/01/11 06:54:54;;;;;;;1.00;0.40;;;9.20;99.90;;;;;;5065961;28;20025;-64
2023/01/11 06:57:20;;;;;;;0.47;0.35;;;9.20;99.90;;;;;;5060551;28;20094;-64
2023/01/11 06:59:45;;;;;;;0.30;0.30;;;9.20;99.90;;;;;;5052709;28;20043;-64
2023/01/11 07:02:11;;;;;;;0.65;0.50;;;9.20;99.90;;;;;;5062752;28;20053;-64
2023/01/11 07:04:37;;;;;;;0.90;0.50;;;9.20;99.90;;;;;;5064698;28;20101;-63
2023/01/11 07:07:02;;;;;;;3.03;0.77;;;9.20;99.90;;;;;;5059033;28;20422;-66
2023/01/11 07:09:28;;;;;;;0.73;0.40;;;9.20;99.90;;;;;;5067343;28;20024;-65
2023/01/11 07:11:53;;;;;;;0.50;0.40;;;9.20;99.90;;;;;;5060491;28;20051;-67
2023/01/11 07:14:19;;;;;;;0.30;0.30;;;9.30;99.90;;;;;;5064692;28;20120;-66
2023/01/11 07:16:46;;;;;;;0.75;0.50;;;9.30;99.90;;;;;;5065697;28;20020;-64
2023/01/11 07:19:11;;;;;;;1.95;0.40;;;9.30;99.90;;;;;;5063886;28;20115;-65
2023/01/11 07:21:37;;;;;;;0.50;0.40;;;9.30;99.90;;;;;;5063898;28;20570;-65
2023/01/11 07:24:03;;;;;;;0.38;0.30;;;9.30;99.90;;;;;;5065660;28;20081;-65
2023/01/11 07:26:30;;;;;;;1.27;0.60;;;9.30;99.90;;;;;;5063929;28;20039;-64
2023/01/11 07:28:55;;;;;;;0.45;0.38;;;9.30;99.90;;;;;;5057835;28;20024;-65
2023/01/11 07:31:21;;;;;;;1.83;1.15;;;9.30;99.90;;;;;;5064540;28;20031;-66
2023/01/11 07:33:47;;;;;;;20.80;6.70;;;9.20;99.90;;;;;;5065363;28;20017;-65
2023/01/11 07:36:12;;;;;;;8.43;2.92;;;9.30;99.90;;;;;;5067685;28;20036;-64
2023/01/11 07:38:38;;;;;;;6.85;1.88;;;9.20;99.90;;;;;;5045776;28;20486;-64
2023/01/11 07:43:10;;;;;;;1.17;0.50;;;9.30;99.90;;;;;;5063874;28;20119;-64
2023/01/11 07:43:49;;;;;;;25.30;8.52;;;9.30;99.90;;;;;;5064611;28;20114;-65
2023/01/11 07:46:15;;;;;;;17.55;6.45;;;9.30;99.90;;;;;;5063540;28;20079;-65
2023/01/11 07:48:41;;;;;;;1.27;1.00;;;9.30;99.90;;;;;;5056166;28;20028;-65
2023/01/11 07:51:06;;;;;;;1.80;0.70;;;9.30;99.90;;;;;;5065338;28;20035;-64
2023/01/11 07:53:32;;;;;;;3.13;0.93;;;9.40;99.90;;;;;;5072348;28;20448;-65
2023/01/11 07:55:57;;;;;;;1.17;0.68;;;9.40;99.90;;;;;;5063820;28;20020;-63
2023/01/11 07:58:23;;;;;;;1.88;0.80;;;9.40;99.90;;;;;;5068048;28;20099;-65
2023/01/11 08:00:48;;;;;;;5.85;0.70;;;9.40;99.90;;;;;;5035323;28;20055;-65
2023/01/11 08:03:14;;;;;;;0.65;0.57;;;9.40;99.90;;;;;;5068839;28;20482;-65
2023/01/11 08:05:40;;;;;;;4.15;1.08;;;9.40;99.90;;;;;;5069284;28;20387;-65
2023/01/11 08:08:06;;;;;;;0.70;0.70;;;9.40;99.90;;;;;;5066182;28;20430;-64
2023/01/11 08:10:32;;;;;;;2.92;0.80;;;9.50;99.90;;;;;;5045586;28;20474;-65
2023/01/11 08:15:42;;;;;;;0.85;0.40;;;9.50;99.90;;;;;;5064267;28;20036;-64
2023/01/11 08:18:10;;;;;;;0.47;0.40;;;9.50;99.90;;;;;;5050243;28;20040;-64
2023/01/11 08:20:36;;;;;;;0.57;0.50;;;9.50;99.90;;;;;;5045040;28;20032;-64
2023/01/11 08:23:04;;;;;;;0.60;0.57;;;9.50;99.90;;;;;;5065918;28;20070;-66
2023/01/11 08:25:30;;;;;;;0.40;0.40;;;9.50;99.90;;;;;;5068511;28;20052;-63
2023/01/11 08:27:58;;;;;;;24.52;13.93;;;9.50;99.90;;;;;;5049071;28;20103;-66
2023/01/11 08:30:24;;;;;;;111.05;49.00;;;9.50;99.90;;;;;;5068198;28;20029;-64
2023/01/11 08:32:50;;;;;;;40.22;20.35;;;9.50;99.90;;;;;;5068318;28;20024;-63
2023/01/11 08:35:15;;;;;;;31.63;16.95;;;9.50;99.90;;;;;;5061227;28;20071;-63
2023/01/11 08:37:41;;;;;;;9.07;5.50;;;9.50;99.90;;;;;;5057151;28;20047;-66
2023/01/11 08:40:07;;;;;;;9.05;4.57;;;9.60;99.90;;;;;;5066679;28;20056;-64
2023/01/11 08:42:33;;;;;;;4.90;3.25;;;9.60;99.90;;;;;;5071757;28;20297;-64
2023/01/11 08:44:59;;;;;;;3.30;2.45;;;9.60;99.90;;;;;;5076520;28;20051;-65
2023/01/11 08:47:24;;;;;;;1.90;1.30;;;9.60;99.90;;;;;;5060610;28;20605;-64
2023/01/11 08:49:50;;;;;;;1.52;0.80;;;9.60;99.90;;;;;;5051962;28;20436;-65
2023/01/11 08:52:16;;;;;;;1.40;0.85;;;9.60;99.90;;;;;;5031858;28;20036;-64
2023/01/11 08:54:42;;;;;;;0.60;0.60;;;9.60;99.90;;;;;;5038545;28;20414;-64
2023/01/11 08:57:07;;;;;;;1.67;0.90;;;9.60;99.90;;;;;;5068367;28;20048;-63
2023/01/11 08:59:33;;;;;;;3.80;0.90;;;9.60;99.90;;;;;;5069836;28;20039;-65
2023/01/11 09:02:01;;;;;;;2.42;0.98;;;9.60;99.90;;;;;;5050882;28;20099;-65
2023/01/11 09:04:27;;;;;;;1.20;0.93;;;9.60;99.90;;;;;;5067588;28;20162;-62
2023/01/11 09:06:53;;;;;;;1.35;1.08;;;9.60;99.90;;;;;;5069266;28;20036;-60
2023/01/11 09:09:19;;;;;;;1.50;1.13;;;9.60;99.90;;;;;;5051462;28;20028;-65
2023/01/11 09:11:53;;;;;;;1.98;1.35;;;9.50;99.90;;;;;;5056051;28;20027;-66
2023/01/11 09:14:24;;;;;;;1.25;1.00;;;9.50;99.90;;;;;;5052940;28;20131;-65
2023/01/11 09:16:51;;;;;;;1.60;1.30;;;9.60;99.90;;;;;;5045003;28;20037;-65
2023/01/11 09:19:17;;;;;;;2.08;1.50;;;9.60;99.90;;;;;;5049031;28;20489;-64
2023/01/11 09:21:45;;;;;;;2.20;1.38;;;9.60;99.90;;;;;;5066003;28;20024;-64
2023/01/11 09:24:11;;;;;;;1.38;0.50;;;9.60;99.90;;;;;;5057107;28;20025;-64
2023/01/11 09:26:37;;;;;;;2.78;1.10;;;9.60;99.90;;;;;;5057500;28;20032;-66
2023/01/11 09:29:03;;;;;;;2.30;1.00;;;9.70;99.90;;;;;;5048840;28;20020;-63
2023/01/11 09:31:29;;;;;;;2.15;1.20;;;9.70;99.90;;;;;;5066627;28;20029;-65
2023/01/11 09:33:55;;;;;;;1.17;0.80;;;9.70;99.90;;;;;;5068741;28;20035;-65
2023/01/11 09:36:22;;;;;;;1.10;0.95;;;9.70;99.90;;;;;;5071458;28;20051;-63
2023/01/11 09:38:51;;;;;;;2.58;0.85;;;9.70;99.90;;;;;;5052402;28;20402;-65
2023/01/11 09:42:05;;;;;;;1.90;1.23;;;9.70;99.90;;;;;;5070203;28;20025;-63
2023/01/11 09:44:33;;;;;;;4.50;2.35;;;9.70;99.90;;;;;;5048887;28;20024;-65
2023/01/11 09:47:11;;;;;;;3.42;1.73;;;9.70;99.90;;;;;;5070861;28;20106;-63
2023/01/11 09:49:41;;;;;;;4.30;1.90;;;9.70;99.90;;;;;;5066325;28;20056;-65
2023/01/11 09:52:18;;;;;;;3.47;1.60;;;9.80;99.90;;;;;;5061832;28;20020;-64
2023/01/11 09:54:44;;;;;;;2.90;1.08;;;9.80;99.90;;;;;;5053208;28;20077;-64
2023/01/11 09:57:25;;;;;;;4.93;1.80;;;9.80;99.90;;;;;;5062751;28;20078;-65
2023/01/11 10:00:06;;;;;;;7.32;2.80;;;9.80;99.90;;;;;;5060745;28;20108;-65
2023/01/11 10:02:58;;;;;;;5.93;1.77;;;9.90;99.90;;;;;;5047995;28;20048;-64
2023/01/11 10:06:07;;;;;;;10.35;3.90;;;9.90;99.90;;;;;;5063190;28;20056;-66
2023/01/11 10:08:52;;;;;;;7.68;2.63;;;9.90;99.90;;;;;;5063957;28;20044;-64
2023/01/11 10:11:51;;;;;;;10.27;3.17;;;9.90;99.90;;;;;;5044646;28;20131;-64
2023/01/11 10:14:32;;;;;;;21.58;5.13;;;9.90;99.90;;;;;;5062532;28;20386;-63
2023/01/11 10:17:28;;;;;;;20.50;5.78;;;9.80;99.90;;;;;;5064268;28;20024;-65
2023/01/11 10:20:00;;;;;;;18.13;3.80;;;9.90;99.90;;;;;;5059072;28;20037;-64
2023/01/11 10:22:38;;;;;;;13.35;4.38;;;9.90;99.90;;;;;;5059599;28;20055;-64
2023/01/11 10:25:17;;;;;;;20.30;5.45;;;9.90;99.90;;;;;;5065651;28;20036;-64
2023/01/11 10:28:21;;;;;;;21.52;6.20;;;9.90;99.90;;;;;;5062138;28;20514;-64
2023/01/11 10:42:12;;;;;;;18.83;8.90;;;9.90;99.90;;;;;;4980232;28;20122;-65
2023/01/11 10:44:51;;;;;;;24.67;17.70;;;10.00;99.90;;;;;;5021596;28;20032;-64
2023/01/11 10:47:22;;;;;;;32.63;23.63;;;9.90;99.90;;;;;;5067912;28;20024;-64
2023/01/11 10:50:14;;;;;;;32.00;23.67;;;9.90;99.90;;;;;;5064097;28;20029;-65
2023/01/11 10:53:05;;;;;;;13.70;5.35;;;9.90;99.90;;;;;;5017806;28;20116;-64
2023/01/11 10:55:44;;;;;;;49.13;23.30;;;10.00;99.90;;;;;;5072303;28;20059;-62
2023/01/11 10:58:10;;;;;;;20.63;8.95;;;10.00;99.90;;;;;;5057443;28;20036;-64
2023/01/11 11:00:53;;;;;;;17.67;6.72;;;10.10;99.90;;;;;;5067164;28;20420;-64
2023/01/11 11:03:41;;;;;;;17.08;6.88;;;10.10;99.90;;;;;;5046318;28;20056;-64
2023/01/11 11:06:39;;;;;;;12.80;3.92;;;10.10;99.90;;;;;;5065310;28;20060;-64
2023/01/11 11:09:26;;;;;;;11.10;4.20;;;10.20;99.90;;;;;;5060034;28;20020;-63
2023/01/11 11:12:13;;;;;;;11.48;3.33;;;10.20;99.90;;;;;;5063274;28;20066;-63
2023/01/11 11:15:00;;;;;;;17.30;3.75;;;10.20;99.90;;;;;;5067189;28;20024;-64
2023/01/11 11:17:35;;;;;;;9.65;3.05;;;10.20;99.90;;;;;;5061331;28;20036;-63
2023/01/11 11:20:17;;;;;;;11.75;3.58;;;10.20;99.90;;;;;;5063032;28;20028;-63
2023/01/11 11:22:46;;;;;;;18.02;4.38;;;10.30;99.90;;;;;;5063446;28;20107;-63
2023/01/11 11:25:16;;;;;;;16.35;3.25;;;10.30;99.90;;;;;;5068618;28;20078;-64
2023/01/11 11:27:54;;;;;;;10.02;3.53;;;10.20;99.90;;;;;;5061045;28;20030;-63
2023/01/11 11:30:46;;;;;;;16.52;5.15;;;10.30;99.90;;;;;;5065803;28;20027;-64
2023/01/11 11:33:20;;;;;;;22.67;9.10;;;10.30;99.90;;;;;;5058439;28;20044;-63
2023/01/11 11:35:55;;;;;;;34.70;15.48;;;10.20;99.90;;;;;;5061653;28;20512;-63
2023/01/11 11:38:28;;;;;;;18.75;9.20;;;10.20;99.90;;;;;;5062096;28;20052;-64
2023/01/11 11:41:12;;;;;;;72.80;32.60;;;10.10;99.90;;;;;;5064309;28;20025;-63
2023/01/11 11:43:40;;;;;;;45.60;19.90;;;10.00;99.90;;;;;;5064734;28;20035;-64
2023/01/11 11:46:18;;;;;;;24.98;10.15;;;10.00;99.90;;;;;;5066875;28;20398;-63
2023/01/11 11:48:48;;;;;;;18.23;3.45;;;10.00;99.90;;;;;;5064854;28;20398;-64
2023/01/11 11:51:20;;;;;;;12.38;4.38;;;9.90;99.90;;;;;;5064847;28;20055;-63
2023/01/11 11:53:54;;;;;;;19.35;3.25;;;9.90;99.90;;;;;;5066361;28;20115;-63
2023/01/11 11:56:29;;;;;;;21.73;4.35;;;9.80;99.90;;;;;;5068136;28;20094;-63
2023/01/11 11:58:57;;;;;;;13.05;3.58;;;9.70;99.90;;;;;;5062648;28;20036;-63
2023/01/11 12:01:32;;;;;;;18.63;3.50;;;9.70;99.90;;;;;;5068575;28;20119;-64
2023/01/11 12:04:15;;;;;;;12.93;2.58;;;9.60;99.90;;;;;;5048411;28;20464;-64
2023/01/11 12:06:41;;;;;;;10.13;2.95;;;9.60;99.90;;;;;;5056236;28;20094;-64
2023/01/11 12:09:21;;;;;;;14.75;2.80;;;9.60;99.90;;;;;;5066001;28;20025;-63
2023/01/11 12:11:47;;;;;;;17.27;3.55;;;9.60;99.90;;;;;;5069265;28;20583;-62
2023/01/11 12:14:28;;;;;;;16.02;4.28;;;9.50;99.90;;;;;;5060902;28;20037;-63
2023/01/11 12:16:57;;;;;;;14.73;6.72;;;9.50;99.90;;;;;;5063764;28;20021;-63
2023/01/11 12:19:44;;;;;;;17.80;7.82;;;9.50;99.90;;;;;;5066203;28;20105;-64
2023/01/11 12:22:23;;;;;;;12.75;3.10;;;9.50;99.90;;;;;;5063773;28;20024;-63
2023/01/11 12:25:12;;;;;;;23.10;6.47;;;9.50;99.90;;;;;;5063401;28;20490;-64
2023/01/11 12:27:41;;;;;;;100.05;37.30;;;9.50;99.90;;;;;;5047167;28;20047;-63
2023/01/11 12:30:51;;;;;;;158.07;59.60;;;9.50;99.90;;;;;;5064897;28;20032;-63
2023/01/11 12:33:48;;;;;;;78.32;33.25;;;9.50;99.90;;;;;;5038908;28;20090;-63
2023/01/11 12:36:48;;;;;;;68.50;26.00;;;9.40;99.90;;;;;;5050174;28;20600;-63
2023/01/11 12:39:45;;;;;;;21.85;6.45;;;9.40;99.90;;;;;;5062044;28;20036;-62
2023/01/11 12:42:30;;;;;;;19.10;3.42;;;9.50;99.90;;;;;;5060994;28;20122;-63
2023/01/11 12:45:22;;;;;;;11.32;3.35;;;9.40;99.90;;;;;;5060960;28;20586;-63
2023/01/11 12:48:20;;;;;;;19.60;4.35;;;9.40;99.90;;;;;;5059156;28;20037;-63
2023/01/11 12:51:07;;;;;;;16.83;2.92;;;9.40;99.90;;;;;;5039372;28;20025;-63
2023/01/11 12:53:48;;;;;;;11.48;3.55;;;9.40;99.90;;;;;;5064394;28;20034;-64
2023/01/11 12:56:30;;;;;;;18.08;2.78;;;9.40;99.90;;;;;;5062400;28;20024;-64
2023/01/11 12:59:07;;;;;;;43.53;15.25;;;9.40;99.90;;;;;;5055203;28;20029;-62
2023/01/11 13:01:42;;;;;;;17.73;6.60;;;9.30;99.90;;;;;;5066307;28;20111;-63
2023/01/11 13:04:41;;;;;;;44.40;17.08;;;9.20;99.90;;;;;;5046286;28;20114;-63
2023/01/11 13:07:18;;;;;;;107.47;49.92;;;9.10;99.90;;;;;;5065494;28;20029;-63
2023/01/11 13:10:04;;;;;;;11.80;5.35;;;9.10;99.90;;;;;;5067239;28;20367;-62
2023/01/11 13:12:54;;;;;;;22.65;4.25;;;8.90;99.90;;;;;;5067088;28;20040;-63
2023/01/11 13:15:26;;;;;;;17.92;3.40;;;8.90;99.90;;;;;;5067999;28;20032;-63
2023/01/11 13:18:12;;;;;;;16.73;3.60;;;8.90;99.90;;;;;;5054830;28;20020;-63
2023/01/11 13:20:46;;;;;;;15.77;2.92;;;8.80;99.90;;;;;;5056244;28;20423;-66
2023/01/11 13:23:23;;;;;;;;;;;8.80;99.90;;;;;;5063378;28;20028;-65
2023/01/11 13:25:51;;;;;;;18.38;2.42;;;8.80;99.90;;;;;;5063802;28;19951;-65
2023/01/11 13:28:35;;;;;;;16.45;3.35;;;8.80;99.90;;;;;;5064020;28;20036;-65
2023/01/11 13:31:04;;;;;;;14.05;2.55;;;8.80;99.90;;;;;;5064798;28;20067;-64
2023/01/11 13:33:31;;;;;;;10.13;2.15;;;8.80;99.90;;;;;;5069230;28;20072;-64
2023/01/11 13:36:04;;;;;;;22.77;3.40;;;8.70;99.90;;;;;;5069005;28;20073;-63
2023/01/11 13:38:47;;;;;;;21.52;4.82;;;8.70;99.90;;;;;;5066783;28;20052;-63
2023/01/11 13:41:24;;;;;;;13.98;4.13;;;8.60;99.90;;;;;;5062709;28;20490;-62
2023/01/11 13:44:04;;;;;;;25.77;5.75;;;8.60;99.90;;;;;;5066886;28;20116;-65
2023/01/11 13:46:30;;;;;;;22.33;5.80;;;8.70;99.90;;;;;;5067108;28;20027;-65
2023/01/11 13:49:13;;;;;;;17.25;3.05;;;8.70;99.90;;;;;;5071113;28;20020;-64
2023/01/11 13:52:17;;;;;;;12.88;4.10;;;8.80;99.90;;;;;;5069767;28;20074;-65